sensor_id;sensor_type;location;lat;lon;timestamp;temperature;humidity
26803;DHT22;14378;51.796;5.808;2022-11-03T00:01:05;12.50;99.90
26803;DHT22;14378;51.796;5.808;2022-11-03T00:03:07;12.40;99.90
26803;DHT22;14378;51.796;5.808;2022-11-03T00:05:08;12.40;99.90
26803;DHT22;14378;51.796;5.808;2022-11-03T00:07:28;12.40;99.90
26803;DHT22;14378;51.796;5.808;2022-11-03T00:09:32;12.40;99.90
26803;DHT22;14378;51.796;5.808;2022-11-03T00:11:34;12.40;99.90
26803;DHT22;14378;51.796;5.808;2022-11-03T00:13:37;12.40;99.90
26803;DHT22;14378;51.796;5.808;2022-11-03T00:15:47;12.40;99.90
26803;DHT22;14378;51.796;5.808;2022-11-03T00:17:49;12.40;99.90
26803;DHT22;14378;51.796;5.808;2022-11-03T00:19:50;12.40;99.90
26803;DHT22;14378;51.796;5.808;2022-11-03T00:21:54;12.40;99.90
26803;DHT22;14378;51.796;5.808;2022-11-03T00:24:01;12.40;99.90
26803;DHT22;14378;51.796;5.808;2022-11-03T00:28:23;12.40;99.90
26803;DHT22;14378;51.796;5.808;2022-11-03T00:30:24;12.40;99.90
26803;DHT22;14378;51.796;5.808;2022-11-03T00:32:25;12.40;99.90
26803;DHT22;14378;51.796;5.808;2022-11-03T00:34:26;12.40;99.90
26803;DHT22;14378;51.796;5.808;2022-11-03T00:36:29;12.40;99.90
26803;DHT22;14378;51.796;5.808;2022-11-03T00:38:32;12.50;99.90
26803;DHT22;14378;51.796;5.808;2022-11-03T00:40:33;12.50;99.90
26803;DHT22;14378;51.796;5.808;2022-11-03T00:42:34;12.50;99.90
26803;DHT22;14378;51.796;5.808;2022-11-03T00:44:37;12.50;99.90
26803;DHT22;14378;51.796;5.808;2022-11-03T00:46:38;12.50;99.90
26803;DHT22;14378;51.796;5.808;2022-11-03T00:48:40;12.50;99.90
26803;DHT22;14378;51.796;5.808;2022-11-03T00:50:41;12.50;99.90
26803;DHT22;14378;51.796;5.808;2022-11-03T00:52:43;12.50;99.90
26803;DHT22;14378;51.796;5.808;2022-11-03T00:54:44;12.50;99.90
26803;DHT22;14378;51.796;5.808;2022-11-03T00:56:45;12.50;99.90
26803;DHT22;14378;51.796;5.808;2022-11-03T00:58:46;12.50;99.90
26803;DHT22;14378;51.796;5.808;2022-11-03T01:03:14;12.50;99.90
26803;DHT22;14378;51.796;5.808;2022-11-03T01:05:16;12.40;99.90
26803;DHT22;14378;51.796;5.808;2022-11-03T01:07:35;12.40;99.90
26803;DHT22;14378;51.796;5.808;2022-11-03T01:09:38;12.40;99.90
26803;DHT22;14378;51.796;5.808;2022-11-03T01:11:39;12.40;99.90
26803;DHT22;14378;51.796;5.808;2022-11-03T01:13:45;12.40;99.90
26803;DHT22;14378;51.796;5.808;2022-11-03T01:15:46;12.40;99.90
26803;DHT22;14378;51.796;5.808;2022-11-03T01:17:47;12.40;99.90
26803;DHT22;14378;51.796;5.808;2022-11-03T01:19:49;12.40;99.90
26803;DHT22;14378;51.796;5.808;2022-11-03T01:21:51;12.40;99.90
26803;DHT22;14378;51.796;5.808;2022-11-03T01:23:52;12.40;99.90
26803;DHT22;14378;51.796;5.808;2022-11-03T01:25:53;12.40;99.90
26803;DHT22;14378;51.796;5.808;2022-11-03T01:27:54;12.40;99.90
26803;DHT22;14378;51.796;5.808;2022-11-03T01:29:57;12.40;99.90
26803;DHT22;14378;51.796;5.808;2022-11-03T01:31:58;12.40;99.90
26803;DHT22;14378;51.796;5.808;2022-11-03T01:34:02;12.40;99.90
26803;DHT22;14378;51.796;5.808;2022-11-03T01:36:03;12.40;99.90
26803;DHT22;14378;51.796;5.808;2022-11-03T01:38:04;12.40;99.90
26803;DHT22;14378;51.796;5.808;2022-11-03T01:40:05;12.40;99.90
26803;DHT22;14378;51.796;5.808;2022-11-03T01:42:06;12.30;99.90
26803;DHT22;14378;51.796;5.808;2022-11-03T01:46:26;12.40;99.90
26803;DHT22;14378;51.796;5.808;2022-11-03T01:48:31;12.40;99.90
26803;DHT22;14378;51.796;5.808;2022-11-03T01:50:34;12.40;99.90
26803;DHT22;14378;51.796;5.808;2022-11-03T01:52:53;12.40;99.90
26803;DHT22;14378;51.796;5.808;2022-11-03T01:55:23;12.40;99.90
26803;DHT22;14378;51.796;5.808;2022-11-03T01:57:26;12.40;99.90
26803;DHT22;14378;51.796;5.808;2022-11-03T01:59:31;12.40;99.90
26803;DHT22;14378;51.796;5.808;2022-11-03T02:01:33;12.40;99.90
26803;DHT22;14378;51.796;5.808;2022-11-03T02:03:40;12.40;99.90
26803;DHT22;14378;51.796;5.808;2022-11-03T02:05:44;12.30;99.90
26803;DHT22;14378;51.796;5.808;2022-11-03T02:10:01;12.40;99.90
26803;DHT22;14378;51.796;5.808;2022-11-03T02:12:03;12.40;99.90
26803;DHT22;14378;51.796;5.808;2022-11-03T02:14:11;12.40;99.90
26803;DHT22;14378;51.796;5.808;2022-11-03T02:16:14;12.40;99.90
26803;DHT22;14378;51.796;5.808;2022-11-03T02:18:16;12.40;99.90
26803;DHT22;14378;51.796;5.808;2022-11-03T02:20:26;12.40;99.90
26803;DHT22;14378;51.796;5.808;2022-11-03T02:27:41;12.40;99.90
26803;DHT22;14378;51.796;5.808;2022-11-03T02:29:43;12.40;99.90
26803;DHT22;14378;51.796;5.808;2022-11-03T02:31:49;12.40;99.90
26803;DHT22;14378;51.796;5.808;2022-11-03T02:34:13;12.40;99.90
26803;DHT22;14378;51.796;5.808;2022-11-03T02:36:36;12.40;99.90
26803;DHT22;14378;51.796;5.808;2022-11-03T02:38:49;12.40;99.90
26803;DHT22;14378;51.796;5.808;2022-11-03T02:40:54;12.40;99.90
26803;DHT22;14378;51.796;5.808;2022-11-03T02:43:02;12.40;99.90
26803;DHT22;14378;51.796;5.808;2022-11-03T02:45:08;12.40;99.90
26803;DHT22;14378;51.796;5.808;2022-11-03T02:47:12;12.40;99.90
26803;DHT22;14378;51.796;5.808;2022-11-03T02:49:13;12.30;99.90
26803;DHT22;14378;51.796;5.808;2022-11-03T02:51:14;12.30;99.90
26803;DHT22;14378;51.796;5.808;2022-11-03T02:53:16;12.30;99.90
26803;DHT22;14378;51.796;5.808;2022-11-03T02:55:38;12.40;99.90
26803;DHT22;14378;51.796;5.808;2022-11-03T02:58:14;12.40;99.90
26803;DHT22;14378;51.796;5.808;2022-11-03T03:00:14;12.40;99.90
26803;DHT22;14378;51.796;5.808;2022-11-03T03:02:21;12.40;99.90
26803;DHT22;14378;51.796;5.808;2022-11-03T03:04:32;12.40;99.90
26803;DHT22;14378;51.796;5.808;2022-11-03T03:06:44;12.40;99.90
26803;DHT22;14378;51.796;5.808;2022-11-03T03:08:55;12.40;99.90
26803;DHT22;14378;51.796;5.808;2022-11-03T03:11:00;12.40;99.90
26803;DHT22;14378;51.796;5.808;2022-11-03T03:13:04;12.40;99.90
26803;DHT22;14378;51.796;5.808;2022-11-03T03:15:07;12.40;99.90
26803;DHT22;14378;51.796;5.808;2022-11-03T03:17:17;12.40;99.90
26803;DHT22;14378;51.796;5.808;2022-11-03T03:21:45;12.40;99.90
26803;DHT22;14378;51.796;5.808;2022-11-03T03:23:56;12.40;99.90
26803;DHT22;14378;51.796;5.808;2022-11-03T03:26:04;12.40;99.90
26803;DHT22;14378;51.796;5.808;2022-11-03T03:28:14;12.40;99.90
26803;DHT22;14378;51.796;5.808;2022-11-03T03:30:17;12.40;99.90
26803;DHT22;14378;51.796;5.808;2022-11-03T03:32:21;12.40;99.90
26803;DHT22;14378;51.796;5.808;2022-11-03T03:34:26;12.40;99.90
26803;DHT22;14378;51.796;5.808;2022-11-03T03:36:30;12.40;99.90
26803;DHT22;14378;51.796;5.808;2022-11-03T03:38:39;12.40;99.90
26803;DHT22;14378;51.796;5.808;2022-11-03T03:40:43;12.40;99.90
26803;DHT22;14378;51.796;5.808;2022-11-03T03:42:48;12.40;99.90
26803;DHT22;14378;51.796;5.808;2022-11-03T03:44:51;12.40;99.90
26803;DHT22;14378;51.796;5.808;2022-11-03T03:46:59;12.40;99.90
26803;DHT22;14378;51.796;5.808;2022-11-03T03:49:01;12.40;99.90
26803;DHT22;14378;51.796;5.808;2022-11-03T03:51:03;12.40;99.90
26803;DHT22;14378;51.796;5.808;2022-11-03T03:53:09;12.40;99.90
26803;DHT22;14378;51.796;5.808;2022-11-03T03:55:17;12.40;99.90
26803;DHT22;14378;51.796;5.808;2022-11-03T03:57:22;12.40;99.90
26803;DHT22;14378;51.796;5.808;2022-11-03T03:59:24;12.30;99.90
26803;DHT22;14378;51.796;5.808;2022-11-03T04:01:26;12.30;99.90
26803;DHT22;14378;51.796;5.808;2022-11-03T04:03:27;12.30;99.90
26803;DHT22;14378;51.796;5.808;2022-11-03T04:05:31;12.40;99.90
26803;DHT22;14378;51.796;5.808;2022-11-03T04:07:32;12.30;99.90
26803;DHT22;14378;51.796;5.808;2022-11-03T04:09:49;12.30;99.90
26803;DHT22;14378;51.796;5.808;2022-11-03T04:11:50;12.30;99.90
26803;DHT22;14378;51.796;5.808;2022-11-03T04:14:10;12.30;99.90
26803;DHT22;14378;51.796;5.808;2022-11-03T04:16:32;12.30;99.90
26803;DHT22;14378;51.796;5.808;2022-11-03T04:18:54;12.40;99.90
26803;DHT22;14378;51.796;5.808;2022-11-03T04:21:13;12.40;99.90
26803;DHT22;14378;51.796;5.808;2022-11-03T04:23:33;12.40;99.90
26803;DHT22;14378;51.796;5.808;2022-11-03T04:25:34;12.40;99.90
26803;DHT22;14378;51.796;5.808;2022-11-03T04:27:36;12.30;99.90
26803;DHT22;14378;51.796;5.808;2022-11-03T04:29:37;12.40;99.90
26803;DHT22;14378;51.796;5.808;2022-11-03T04:31:39;12.40;99.90
26803;DHT22;14378;51.796;5.808;2022-11-03T04:33:43;12.40;99.90
26803;DHT22;14378;51.796;5.808;2022-11-03T04:35:46;12.40;99.90
26803;DHT22;14378;51.796;5.808;2022-11-03T04:37:57;12.40;99.90
26803;DHT22;14378;51.796;5.808;2022-11-03T04:40:01;12.40;99.90
26803;DHT22;14378;51.796;5.808;2022-11-03T04:42:20;12.40;99.90
26803;DHT22;14378;51.796;5.808;2022-11-03T04:44:22;12.40;99.90
26803;DHT22;14378;51.796;5.808;2022-11-03T04:46:27;12.40;99.90
26803;DHT22;14378;51.796;5.808;2022-11-03T04:48:33;12.50;99.90
26803;DHT22;14378;51.796;5.808;2022-11-03T04:50:35;12.40;99.90
26803;DHT22;14378;51.796;5.808;2022-11-03T04:52:37;12.50;99.90
26803;DHT22;14378;51.796;5.808;2022-11-03T04:54:38;12.50;99.90
26803;DHT22;14378;51.796;5.808;2022-11-03T04:56:39;12.50;99.90
26803;DHT22;14378;51.796;5.808;2022-11-03T04:58:40;12.50;99.90
26803;DHT22;14378;51.796;5.808;2022-11-03T05:00:42;12.50;99.90
26803;DHT22;14378;51.796;5.808;2022-11-03T05:02:46;12.50;99.90
26803;DHT22;14378;51.796;5.808;2022-11-03T05:04:47;12.60;99.90
26803;DHT22;14378;51.796;5.808;2022-11-03T05:06:50;12.60;99.90
26803;DHT22;14378;51.796;5.808;2022-11-03T05:08:57;12.60;99.90
26803;DHT22;14378;51.796;5.808;2022-11-03T05:10:58;12.60;99.90
26803;DHT22;14378;51.796;5.808;2022-11-03T05:13:01;12.60;99.90
26803;DHT22;14378;51.796;5.808;2022-11-03T05:17:32;12.60;99.90
26803;DHT22;14378;51.796;5.808;2022-11-03T05:19:36;12.60;99.90
26803;DHT22;14378;51.796;5.808;2022-11-03T05:21:38;12.60;99.90
26803;DHT22;14378;51.796;5.808;2022-11-03T05:23:43;12.70;99.90
26803;DHT22;14378;51.796;5.808;2022-11-03T05:25:48;12.60;99.90
26803;DHT22;14378;51.796;5.808;2022-11-03T05:27:50;12.60;99.90
26803;DHT22;14378;51.796;5.808;2022-11-03T05:29:52;12.60;99.90
26803;DHT22;14378;51.796;5.808;2022-11-03T05:31:55;12.60;99.90
26803;DHT22;14378;51.796;5.808;2022-11-03T05:33:59;12.60;99.90
26803;DHT22;14378;51.796;5.808;2022-11-03T05:36:10;12.60;99.90
26803;DHT22;14378;51.796;5.808;2022-11-03T05:38:15;12.60;99.90
26803;DHT22;14378;51.796;5.808;2022-11-03T05:40:34;12.60;99.90
26803;DHT22;14378;51.796;5.808;2022-11-03T05:42:39;12.60;99.90
26803;DHT22;14378;51.796;5.808;2022-11-03T05:44:41;12.60;99.90
26803;DHT22;14378;51.796;5.808;2022-11-03T05:46:44;12.60;99.90
26803;DHT22;14378;51.796;5.808;2022-11-03T05:48:45;12.70;99.90
26803;DHT22;14378;51.796;5.808;2022-11-03T05:50:46;12.60;99.90
26803;DHT22;14378;51.796;5.808;2022-11-03T05:52:49;12.60;99.90
26803;DHT22;14378;51.796;5.808;2022-11-03T05:54:57;12.60;99.90
26803;DHT22;14378;51.796;5.808;2022-11-03T05:57:00;12.60;99.90
26803;DHT22;14378;51.796;5.808;2022-11-03T05:59:01;12.60;99.90
26803;DHT22;14378;51.796;5.808;2022-11-03T06:01:12;12.70;99.90
26803;DHT22;14378;51.796;5.808;2022-11-03T06:03:24;12.60;99.90
26803;DHT22;14378;51.796;5.808;2022-11-03T06:05:26;12.60;99.90
26803;DHT22;14378;51.796;5.808;2022-11-03T06:07:30;12.70;99.90
26803;DHT22;14378;51.796;5.808;2022-11-03T06:09:32;12.60;99.90
26803;DHT22;14378;51.796;5.808;2022-11-03T06:11:36;12.60;99.90
26803;DHT22;14378;51.796;5.808;2022-11-03T06:13:41;12.60;99.90
26803;DHT22;14378;51.796;5.808;2022-11-03T06:15:48;12.70;99.90
26803;DHT22;14378;51.796;5.808;2022-11-03T06:17:51;12.60;99.90
26803;DHT22;14378;51.796;5.808;2022-11-03T06:19:56;12.60;99.90
26803;DHT22;14378;51.796;5.808;2022-11-03T06:24:28;12.70;99.90
26803;DHT22;14378;51.796;5.808;2022-11-03T06:26:33;12.70;99.90
26803;DHT22;14378;51.796;5.808;2022-11-03T06:28:36;12.70;99.90
26803;DHT22;14378;51.796;5.808;2022-11-03T06:30:39;12.70;99.90
26803;DHT22;14378;51.796;5.808;2022-11-03T06:32:42;12.70;99.90
26803;DHT22;14378;51.796;5.808;2022-11-03T06:34:46;12.70;99.90
26803;DHT22;14378;51.796;5.808;2022-11-03T06:36:48;12.70;99.90
26803;DHT22;14378;51.796;5.808;2022-11-03T06:38:59;12.70;99.90
26803;DHT22;14378;51.796;5.808;2022-11-03T06:41:02;12.70;99.90
26803;DHT22;14378;51.796;5.808;2022-11-03T06:43:17;12.60;99.90
26803;DHT22;14378;51.796;5.808;2022-11-03T06:45:22;12.60;99.90
26803;DHT22;14378;51.796;5.808;2022-11-03T06:47:25;12.60;99.90
26803;DHT22;14378;51.796;5.808;2022-11-03T06:49:33;12.70;99.90
26803;DHT22;14378;51.796;5.808;2022-11-03T06:51:34;12.60;99.90
26803;DHT22;14378;51.796;5.808;2022-11-03T06:53:36;12.60;99.90
26803;DHT22;14378;51.796;5.808;2022-11-03T06:55:39;12.60;99.90
26803;DHT22;14378;51.796;5.808;2022-11-03T06:57:42;12.60;99.90
26803;DHT22;14378;51.796;5.808;2022-11-03T06:59:44;12.70;99.90
26803;DHT22;14378;51.796;5.808;2022-11-03T07:01:51;12.70;99.90
26803;DHT22;14378;51.796;5.808;2022-11-03T07:04:17;12.70;99.90
26803;DHT22;14378;51.796;5.808;2022-11-03T07:06:23;12.70;99.90
26803;DHT22;14378;51.796;5.808;2022-11-03T07:10:32;12.70;99.90
26803;DHT22;14378;51.796;5.808;2022-11-03T07:12:34;12.80;99.90
26803;DHT22;14378;51.796;5.808;2022-11-03T07:14:36;12.70;99.90
26803;DHT22;14378;51.796;5.808;2022-11-03T07:16:51;12.80;99.90
26803;DHT22;14378;51.796;5.808;2022-11-03T07:18:53;12.80;99.90
26803;DHT22;14378;51.796;5.808;2022-11-03T07:20:55;12.80;99.90
26803;DHT22;14378;51.796;5.808;2022-11-03T07:23:00;12.80;99.90
26803;DHT22;14378;51.796;5.808;2022-11-03T07:25:05;12.80;99.90
26803;DHT22;14378;51.796;5.808;2022-11-03T07:27:20;12.80;99.90
26803;DHT22;14378;51.796;5.808;2022-11-03T07:29:26;12.80;99.90
26803;DHT22;14378;51.796;5.808;2022-11-03T07:31:31;12.90;99.90
26803;DHT22;14378;51.796;5.808;2022-11-03T07:33:35;12.90;99.90
26803;DHT22;14378;51.796;5.808;2022-11-03T07:35:42;12.90;99.90
26803;DHT22;14378;51.796;5.808;2022-11-03T07:37:44;12.90;99.90
26803;DHT22;14378;51.796;5.808;2022-11-03T07:39:46;13.00;99.90
26803;DHT22;14378;51.796;5.808;2022-11-03T07:41:49;13.00;99.90
26803;DHT22;14378;51.796;5.808;2022-11-03T07:43:58;13.00;99.90
26803;DHT22;14378;51.796;5.808;2022-11-03T07:46:03;13.00;99.90
26803;DHT22;14378;51.796;5.808;2022-11-03T07:48:21;13.10;99.90
26803;DHT22;14378;51.796;5.808;2022-11-03T07:50:23;13.10;99.90
26803;DHT22;14378;51.796;5.808;2022-11-03T07:52:25;13.10;99.90
26803;DHT22;14378;51.796;5.808;2022-11-03T07:54:34;13.10;99.90
26803;DHT22;14378;51.796;5.808;2022-11-03T07:59:03;13.20;99.90
26803;DHT22;14378;51.796;5.808;2022-11-03T08:03:38;13.20;99.90
26803;DHT22;14378;51.796;5.808;2022-11-03T08:05:41;13.20;99.90
26803;DHT22;14378;51.796;5.808;2022-11-03T08:07:43;13.30;99.90
26803;DHT22;14378;51.796;5.808;2022-11-03T08:09:44;13.30;99.90
26803;DHT22;14378;51.796;5.808;2022-11-03T08:11:45;13.30;99.90
26803;DHT22;14378;51.796;5.808;2022-11-03T08:13:47;13.30;99.90
26803;DHT22;14378;51.796;5.808;2022-11-03T08:15:48;13.30;99.90
26803;DHT22;14378;51.796;5.808;2022-11-03T08:17:49;13.30;99.90
26803;DHT22;14378;51.796;5.808;2022-11-03T08:19:50;13.40;99.90
26803;DHT22;14378;51.796;5.808;2022-11-03T08:21:52;13.40;99.90
26803;DHT22;14378;51.796;5.808;2022-11-03T08:23:53;13.40;99.90
26803;DHT22;14378;51.796;5.808;2022-11-03T08:25:54;13.40;99.90
26803;DHT22;14378;51.796;5.808;2022-11-03T08:27:55;13.50;99.90
26803;DHT22;14378;51.796;5.808;2022-11-03T08:29:56;13.50;99.90
26803;DHT22;14378;51.796;5.808;2022-11-03T08:31:57;13.50;99.90
26803;DHT22;14378;51.796;5.808;2022-11-03T08:33:58;13.50;99.90
26803;DHT22;14378;51.796;5.808;2022-11-03T08:36:02;13.50;99.90
26803;DHT22;14378;51.796;5.808;2022-11-03T08:38:04;13.60;99.90
26803;DHT22;14378;51.796;5.808;2022-11-03T08:40:06;13.60;99.90
26803;DHT22;14378;51.796;5.808;2022-11-03T08:42:07;13.60;99.90
26803;DHT22;14378;51.796;5.808;2022-11-03T08:44:08;13.60;99.90
26803;DHT22;14378;51.796;5.808;2022-11-03T08:46:09;13.60;99.90
26803;DHT22;14378;51.796;5.808;2022-11-03T08:48:11;13.60;99.90
26803;DHT22;14378;51.796;5.808;2022-11-03T08:50:12;13.70;99.90
26803;DHT22;14378;51.796;5.808;2022-11-03T08:52:13;13.70;99.90
26803;DHT22;14378;51.796;5.808;2022-11-03T08:54:16;13.70;99.90
26803;DHT22;14378;51.796;5.808;2022-11-03T08:56:16;13.70;99.90
26803;DHT22;14378;51.796;5.808;2022-11-03T08:58:18;13.70;99.90
26803;DHT22;14378;51.796;5.808;2022-11-03T09:00:19;13.80;99.90
26803;DHT22;14378;51.796;5.808;2022-11-03T09:02:20;13.80;99.90
26803;DHT22;14378;51.796;5.808;2022-11-03T09:04:22;13.80;99.90
26803;DHT22;14378;51.796;5.808;2022-11-03T09:06:23;13.80;99.90
26803;DHT22;14378;51.796;5.808;2022-11-03T09:08:24;13.80;99.90
26803;DHT22;14378;51.796;5.808;2022-11-03T09:10:26;13.90;99.90
26803;DHT22;14378;51.796;5.808;2022-11-03T09:12:27;13.90;99.90
26803;DHT22;14378;51.796;5.808;2022-11-03T09:14:27;13.90;99.90
26803;DHT22;14378;51.796;5.808;2022-11-03T09:16:31;14.00;99.90
26803;DHT22;14378;51.796;5.808;2022-11-03T09:18:32;14.00;99.90
26803;DHT22;14378;51.796;5.808;2022-11-03T09:20:33;14.10;99.90
26803;DHT22;14378;51.796;5.808;2022-11-03T09:22:34;14.10;99.90
26803;DHT22;14378;51.796;5.808;2022-11-03T09:24:35;14.20;99.90
26803;DHT22;14378;51.796;5.808;2022-11-03T09:26:36;14.20;99.90
26803;DHT22;14378;51.796;5.808;2022-11-03T09:28:37;14.30;99.90
26803;DHT22;14378;51.796;5.808;2022-11-03T09:30:38;14.30;99.90
26803;DHT22;14378;51.796;5.808;2022-11-03T09:32:42;14.40;99.90
26803;DHT22;14378;51.796;5.808;2022-11-03T09:34:44;14.40;99.90
26803;DHT22;14378;51.796;5.808;2022-11-03T09:36:44;14.50;99.90
26803;DHT22;14378;51.796;5.808;2022-11-03T09:38:45;14.50;99.90
26803;DHT22;14378;51.796;5.808;2022-11-03T09:40:46;14.60;99.90
26803;DHT22;14378;51.796;5.808;2022-11-03T09:42:47;14.60;99.90
26803;DHT22;14378;51.796;5.808;2022-11-03T09:44:49;14.60;99.90
26803;DHT22;14378;51.796;5.808;2022-11-03T09:46:51;14.70;99.90
26803;DHT22;14378;51.796;5.808;2022-11-03T09:48:53;14.70;99.90
26803;DHT22;14378;51.796;5.808;2022-11-03T09:50:56;14.70;99.90
26803;DHT22;14378;51.796;5.808;2022-11-03T09:52:57;14.70;99.90
26803;DHT22;14378;51.796;5.808;2022-11-03T09:54:59;14.80;99.90
26803;DHT22;14378;51.796;5.808;2022-11-03T09:57:10;14.80;99.90
26803;DHT22;14378;51.796;5.808;2022-11-03T09:59:19;14.80;99.90
26803;DHT22;14378;51.796;5.808;2022-11-03T10:01:22;14.80;99.90
26803;DHT22;14378;51.796;5.808;2022-11-03T10:03:23;14.80;99.90
26803;DHT22;14378;51.796;5.808;2022-11-03T10:05:26;14.90;99.90
26803;DHT22;14378;51.796;5.808;2022-11-03T10:07:33;14.90;99.90
26803;DHT22;14378;51.796;5.808;2022-11-03T10:09:34;14.90;99.90
26803;DHT22;14378;51.796;5.808;2022-11-03T10:11:36;14.90;99.90
26803;DHT22;14378;51.796;5.808;2022-11-03T10:13:46;15.00;99.90
26803;DHT22;14378;51.796;5.808;2022-11-03T10:15:50;15.00;99.90
26803;DHT22;14378;51.796;5.808;2022-11-03T10:17:51;15.00;99.90
26803;DHT22;14378;51.796;5.808;2022-11-03T10:19:55;15.00;99.90
26803;DHT22;14378;51.796;5.808;2022-11-03T10:21:58;15.00;99.90
26803;DHT22;14378;51.796;5.808;2022-11-03T10:24:04;15.00;99.90
26803;DHT22;14378;51.796;5.808;2022-11-03T10:26:13;15.00;99.90
26803;DHT22;14378;51.796;5.808;2022-11-03T10:28:23;15.10;99.90
26803;DHT22;14378;51.796;5.808;2022-11-03T10:30:26;15.10;99.90
26803;DHT22;14378;51.796;5.808;2022-11-03T10:32:29;15.10;99.90
26803;DHT22;14378;51.796;5.808;2022-11-03T10:34:36;15.10;99.90
26803;DHT22;14378;51.796;5.808;2022-11-03T10:36:38;15.10;99.90
26803;DHT22;14378;51.796;5.808;2022-11-03T10:38:40;15.10;99.90
26803;DHT22;14378;51.796;5.808;2022-11-03T10:40:43;15.10;99.90
26803;DHT22;14378;51.796;5.808;2022-11-03T10:42:57;15.10;99.90
26803;DHT22;14378;51.796;5.808;2022-11-03T10:45:16;15.10;99.90
26803;DHT22;14378;51.796;5.808;2022-11-03T10:47:32;15.10;99.90
26803;DHT22;14378;51.796;5.808;2022-11-03T10:49:34;15.10;99.90
26803;DHT22;14378;51.796;5.808;2022-11-03T10:51:38;15.10;99.90
26803;DHT22;14378;51.796;5.808;2022-11-03T10:53:40;15.10;99.90
26803;DHT22;14378;51.796;5.808;2022-11-03T10:55:42;15.10;99.90
26803;DHT22;14378;51.796;5.808;2022-11-03T10:57:43;15.10;99.90
26803;DHT22;14378;51.796;5.808;2022-11-03T10:59:47;15.10;99.90
26803;DHT22;14378;51.796;5.808;2022-11-03T11:01:49;15.10;99.90
26803;DHT22;14378;51.796;5.808;2022-11-03T11:03:50;15.00;99.90
26803;DHT22;14378;51.796;5.808;2022-11-03T11:05:52;15.10;99.90
26803;DHT22;14378;51.796;5.808;2022-11-03T11:07:53;15.10;99.90
26803;DHT22;14378;51.796;5.808;2022-11-03T11:09:56;15.10;99.90
26803;DHT22;14378;51.796;5.808;2022-11-03T11:12:18;15.10;99.90
26803;DHT22;14378;51.796;5.808;2022-11-03T11:19:01;15.20;99.90
26803;DHT22;14378;51.796;5.808;2022-11-03T11:28:15;15.40;99.90
26803;DHT22;14378;51.796;5.808;2022-11-03T11:34:50;15.50;99.90
26803;DHT22;14378;51.796;5.808;2022-11-03T11:38:55;15.60;99.90
26803;DHT22;14378;51.796;5.808;2022-11-03T11:40:57;15.70;99.90
26803;DHT22;14378;51.796;5.808;2022-11-03T11:45:12;15.80;99.90
26803;DHT22;14378;51.796;5.808;2022-11-03T11:49:37;15.90;99.90
26803;DHT22;14378;51.796;5.808;2022-11-03T11:51:37;15.90;99.90
26803;DHT22;14378;51.796;5.808;2022-11-03T11:53:40;15.90;99.90
26803;DHT22;14378;51.796;5.808;2022-11-03T11:55:48;16.00;99.90
26803;DHT22;14378;51.796;5.808;2022-11-03T11:57:51;16.00;99.90
26803;DHT22;14378;51.796;5.808;2022-11-03T11:59:53;16.10;99.90
26803;DHT22;14378;51.796;5.808;2022-11-03T12:01:55;16.20;99.90
26803;DHT22;14378;51.796;5.808;2022-11-03T12:04:26;16.20;99.90
26803;DHT22;14378;51.796;5.808;2022-11-03T12:06:36;16.30;99.90
26803;DHT22;14378;51.796;5.808;2022-11-03T12:08:38;16.30;99.90
26803;DHT22;14378;51.796;5.808;2022-11-03T12:10:51;16.30;99.90
26803;DHT22;14378;51.796;5.808;2022-11-03T12:12:55;16.40;99.90
26803;DHT22;14378;51.796;5.808;2022-11-03T12:14:57;16.40;99.90
26803;DHT22;14378;51.796;5.808;2022-11-03T12:19:51;16.40;99.90
26803;DHT22;14378;51.796;5.808;2022-11-03T12:21:52;16.40;99.90
26803;DHT22;14378;51.796;5.808;2022-11-03T12:23:54;16.50;99.90
26803;DHT22;14378;51.796;5.808;2022-11-03T12:25:57;16.50;99.90
26803;DHT22;14378;51.796;5.808;2022-11-03T12:28:00;16.60;99.90
26803;DHT22;14378;51.796;5.808;2022-11-03T12:30:19;16.60;99.90
26803;DHT22;14378;51.796;5.808;2022-11-03T12:32:22;16.60;99.90
26803;DHT22;14378;51.796;5.808;2022-11-03T12:34:23;16.60;99.90
26803;DHT22;14378;51.796;5.808;2022-11-03T12:36:24;16.60;99.90
26803;DHT22;14378;51.796;5.808;2022-11-03T12:38:25;16.60;99.90
26803;DHT22;14378;51.796;5.808;2022-11-03T12:40:26;16.70;99.90
26803;DHT22;14378;51.796;5.808;2022-11-03T12:42:28;16.60;99.90
26803;DHT22;14378;51.796;5.808;2022-11-03T12:44:31;16.70;99.90
26803;DHT22;14378;51.796;5.808;2022-11-03T12:46:32;16.60;99.90
26803;DHT22;14378;51.796;5.808;2022-11-03T12:48:33;16.70;99.90
26803;DHT22;14378;51.796;5.808;2022-11-03T12:50:34;16.70;99.90
26803;DHT22;14378;51.796;5.808;2022-11-03T12:52:37;16.70;99.90
26803;DHT22;14378;51.796;5.808;2022-11-03T12:54:38;16.70;99.90
26803;DHT22;14378;51.796;5.808;2022-11-03T12:56:39;16.60;99.90
26803;DHT22;14378;51.796;5.808;2022-11-03T12:58:40;16.60;99.90
26803;DHT22;14378;51.796;5.808;2022-11-03T13:00:41;16.60;99.90
26803;DHT22;14378;51.796;5.808;2022-11-03T13:02:42;16.70;99.90
26803;DHT22;14378;51.796;5.808;2022-11-03T13:04:43;16.70;99.90
26803;DHT22;14378;51.796;5.808;2022-11-03T13:06:44;16.80;99.90
26803;DHT22;14378;51.796;5.808;2022-11-03T13:08:46;16.80;99.90
26803;DHT22;14378;51.796;5.808;2022-11-03T13:10:49;16.90;99.90
26803;DHT22;14378;51.796;5.808;2022-11-03T13:12:53;17.00;99.90
26803;DHT22;14378;51.796;5.808;2022-11-03T13:14:54;17.10;99.90
26803;DHT22;14378;51.796;5.808;2022-11-03T13:16:56;17.30;99.90
26803;DHT22;14378;51.796;5.808;2022-11-03T13:18:56;17.50;99.90
26803;DHT22;14378;51.796;5.808;2022-11-03T13:21:00;17.50;99.90
26803;DHT22;14378;51.796;5.808;2022-11-03T13:23:03;17.70;99.90
26803;DHT22;14378;51.796;5.808;2022-11-03T13:25:05;17.80;99.90
26803;DHT22;14378;51.796;5.808;2022-11-03T13:27:05;17.90;99.90
26803;DHT22;14378;51.796;5.808;2022-11-03T13:29:06;17.90;99.90
26803;DHT22;14378;51.796;5.808;2022-11-03T13:31:08;18.00;99.90
26803;DHT22;14378;51.796;5.808;2022-11-03T13:33:10;18.00;99.90
26803;DHT22;14378;51.796;5.808;2022-11-03T13:35:11;17.90;99.90
26803;DHT22;14378;51.796;5.808;2022-11-03T13:37:14;17.90;99.90
26803;DHT22;14378;51.796;5.808;2022-11-03T13:39:15;17.80;99.90
26803;DHT22;14378;51.796;5.808;2022-11-03T13:41:16;17.80;99.90
26803;DHT22;14378;51.796;5.808;2022-11-03T13:43:17;17.80;99.90
26803;DHT22;14378;51.796;5.808;2022-11-03T13:45:18;17.80;99.90
26803;DHT22;14378;51.796;5.808;2022-11-03T13:47:21;17.70;99.90
26803;DHT22;14378;51.796;5.808;2022-11-03T13:49:22;17.70;99.90
26803;DHT22;14378;51.796;5.808;2022-11-03T13:51:24;17.60;99.90
26803;DHT22;14378;51.796;5.808;2022-11-03T13:53:25;17.50;99.90
26803;DHT22;14378;51.796;5.808;2022-11-03T13:55:26;17.40;99.90
26803;DHT22;14378;51.796;5.808;2022-11-03T13:57:27;17.30;99.90
26803;DHT22;14378;51.796;5.808;2022-11-03T13:59:32;17.20;99.90